Jj Sky — VRJA6 — position and weather

sailwx.info

Track history (hours):
 
Tides and Currents Weather Stations Pressure Air Temp Water Temp Dewpoint Dewpoint Depression Visibility Wind Speed Wind Dir Waves Ship Positions

Jj Sky

Last reported at 2014-Oct-31 11:08 UTC. Time now 2014-Oct-31 12:10 UTC.
Position N 31°20' E 121°40'.

Length 148 m; draft 7.2 m.

Type: Ship. MMSI: 477397500.

Date/timePositionNaut miles runAvg speedWind from/ knotsBaromVisibWave heightAir tempDewpointWater temp
2014-Oct-31 11:08N 31°20' E 121°40'0 0.1
2014-Oct-31 10:08N 31°20' E 121°40'0 0.0
2014-Oct-31 09:32N 31°20' E 121°40'0 0.0
2014-Oct-31 05:25N 31°20' E 121°40'0 0.0
2014-Oct-30 21:17N 31°20' E 121°40'0 0.1
2014-Oct-30 20:33N 31°20' E 121°40'0 0.0
2014-Oct-30 15:24N 31°20' E 121°40'  
2014-Oct-28 09:19N 33°56' E 134°54'1418.8
2014-Oct-28 08:33N 34°10' E 134°57'1817.9
2014-Oct-28 07:33N 34°27' E 135°06'1414.5
2014-Oct-28 06:33N 34°40' E 135°15'0 0.2
2014-Oct-28 05:30N 34°39' E 135°14'0 0.0
2014-Oct-28 04:29N 34°39' E 135°14'0 0.0
2014-Oct-28 03:29N 34°39' E 135°14'0 0.0
2014-Oct-28 02:22N 34°39' E 135°14'0 0.0
2014-Oct-28 01:28N 34°39' E 135°14'0 0.0
2014-Oct-27 23:15N 34°39' E 135°14'0 0.0
2014-Oct-27 22:30N 34°39' E 135°14'5 5.3
2014-Oct-27 21:33N 34°39' E 135°20'3 2.9
2014-Oct-27 20:28N 34°39' E 135°24'0 0.0
2014-Oct-27 19:28N 34°39' E 135°24'0 0.0
2014-Oct-27 18:33N 34°39' E 135°24'0 0.0
2014-Oct-27 17:33N 34°39' E 135°24'0 0.0
2014-Oct-27 16:33N 34°39' E 135°24'0 0.0
2014-Oct-27 14:32N 34°39' E 135°24'0 0.0
2014-Oct-27 13:25N 34°39' E 135°24'0 0.0
2014-Oct-27 12:31N 34°39' E 135°24'0 0.0
2014-Oct-27 11:06N 34°39' E 135°24'0 0.0
2014-Oct-27 10:30N 34°39' E 135°24'0 0.0
2014-Oct-27 09:29N 34°39' E 135°24'0 0.0
2014-Oct-27 08:23N 34°39' E 135°24'0 0.0
2014-Oct-27 07:23N 34°39' E 135°24'0 0.0
2014-Oct-27 06:28N 34°39' E 135°24'0 0.0
2014-Oct-27 05:22N 34°39' E 135°24'0 0.0
2014-Oct-27 04:33N 34°39' E 135°24'0 0.0
2014-Oct-27 03:27N 34°39' E 135°24'0 0.0
2014-Oct-27 02:14N 34°39' E 135°24'0 0.0
2014-Oct-27 01:32N 34°39' E 135°24'0 0.0
2014-Oct-27 00:32N 34°39' E 135°24'0 0.0
2014-Oct-26 23:31N 34°39' E 135°24'0 0.0
2014-Oct-26 22:31N 34°39' E 135°24'5 4.7
2014-Oct-26 21:33N 34°36' E 135°20'1111.2
2014-Oct-26 20:33N 34°28' E 135°11'1413.8
2014-Oct-26 19:33N 34°18' E 134°59'1414.4
2014-Oct-26 18:33N 34°04' E 134°55'67614.4
2014-Oct-24 19:30N 31°15' E 121°58'1414.3
2014-Oct-24 18:31N 31°19' E 121°42'2 1.3
2014-Oct-24 17:04N 31°20' E 121°40'0 0.0
2014-Oct-24 11:23N 31°20' E 121°40'0 0.0
2014-Oct-24 10:10N 31°20' E 121°40'0 0.0
2014-Oct-24 07:09N 31°20' E 121°40'2 0.6
2014-Oct-24 03:19N 31°19' E 121°43'  
Track history (hours):
 
Tides and Currents Weather Stations Pressure Air Temp Water Temp Dewpoint Dewpoint Depression Visibility Wind Speed Wind Dir Waves Ship Positions

Jj Sky

Last reported at 2014-Oct-31 11:08 UTC. Time now 2014-Oct-31 12:10 UTC.
Position N 31°20' E 121°40'.

Length 148 m; draft 7.2 m.

Type: Ship. MMSI: 477397500.

Date/timePositionNaut miles runAvg speedWind from/ knotsBaromVisibWave heightAir tempDewpointWater temp
2014-Oct-31 11:08N 31°20' E 121°40'0 0.1
2014-Oct-31 10:08N 31°20' E 121°40'0 0.0
2014-Oct-31 09:32N 31°20' E 121°40'0 0.0
2014-Oct-31 05:25N 31°20' E 121°40'0 0.0
2014-Oct-30 21:17N 31°20' E 121°40'0 0.1
2014-Oct-30 20:33N 31°20' E 121°40'0 0.0
2014-Oct-30 15:24N 31°20' E 121°40'  
2014-Oct-28 09:19N 33°56' E 134°54'1418.8
2014-Oct-28 08:33N 34°10' E 134°57'1817.9
2014-Oct-28 07:33N 34°27' E 135°06'1414.5
2014-Oct-28 06:33N 34°40' E 135°15'0 0.2
2014-Oct-28 05:30N 34°39' E 135°14'0 0.0
2014-Oct-28 04:29N 34°39' E 135°14'0 0.0
2014-Oct-28 03:29N 34°39' E 135°14'0 0.0
2014-Oct-28 02:22N 34°39' E 135°14'0 0.0
2014-Oct-28 01:28N 34°39' E 135°14'0 0.0
2014-Oct-27 23:15N 34°39' E 135°14'0 0.0
2014-Oct-27 22:30N 34°39' E 135°14'5 5.3
2014-Oct-27 21:33N 34°39' E 135°20'3 2.9
2014-Oct-27 20:28N 34°39' E 135°24'0 0.0
2014-Oct-27 19:28N 34°39' E 135°24'0 0.0
2014-Oct-27 18:33N 34°39' E 135°24'0 0.0
2014-Oct-27 17:33N 34°39' E 135°24'0 0.0
2014-Oct-27 16:33N 34°39' E 135°24'0 0.0
2014-Oct-27 14:32N 34°39' E 135°24'0 0.0
2014-Oct-27 13:25N 34°39' E 135°24'0 0.0
2014-Oct-27 12:31N 34°39' E 135°24'0 0.0
2014-Oct-27 11:06N 34°39' E 135°24'0 0.0
2014-Oct-27 10:30N 34°39' E 135°24'0 0.0
2014-Oct-27 09:29N 34°39' E 135°24'0 0.0
2014-Oct-27 08:23N 34°39' E 135°24'0 0.0
2014-Oct-27 07:23N 34°39' E 135°24'0 0.0
2014-Oct-27 06:28N 34°39' E 135°24'0 0.0
2014-Oct-27 05:22N 34°39' E 135°24'0 0.0
2014-Oct-27 04:33N 34°39' E 135°24'0 0.0
2014-Oct-27 03:27N 34°39' E 135°24'0 0.0
2014-Oct-27 02:14N 34°39' E 135°24'0 0.0
2014-Oct-27 01:32N 34°39' E 135°24'0 0.0
2014-Oct-27 00:32N 34°39' E 135°24'0 0.0
2014-Oct-26 23:31N 34°39' E 135°24'0 0.0
2014-Oct-26 22:31N 34°39' E 135°24'5 4.7
2014-Oct-26 21:33N 34°36' E 135°20'1111.2
2014-Oct-26 20:33N 34°28' E 135°11'1413.8
2014-Oct-26 19:33N 34°18' E 134°59'1414.4
2014-Oct-26 18:33N 34°04' E 134°55'67614.4
2014-Oct-24 19:30N 31°15' E 121°58'1414.3
2014-Oct-24 18:31N 31°19' E 121°42'2 1.3
2014-Oct-24 17:04N 31°20' E 121°40'0 0.0
2014-Oct-24 11:23N 31°20' E 121°40'0 0.0
2014-Oct-24 10:10N 31°20' E 121°40'0 0.0
2014-Oct-24 07:09N 31°20' E 121°40'2 0.6
2014-Oct-24 03:19N 31°19' E 121°43'  

Dump ship's entire track history